sensor_id;sensor_type;location;lat;lon;timestamp;P1;durP1;ratioP1;P2;durP2;ratioP2
70800;SDS011;59616;52.170;5.386;2022-08-21T00:00:19;9.63;;;2.95;;
70800;SDS011;59616;52.170;5.386;2022-08-21T00:02:56;8.48;;;2.90;;
70800;SDS011;59616;52.170;5.386;2022-08-21T00:05:32;10.25;;;3.08;;
70800;SDS011;59616;52.170;5.386;2022-08-21T00:08:02;8.88;;;2.70;;
70800;SDS011;59616;52.170;5.386;2022-08-21T00:10:29;10.43;;;3.10;;
70800;SDS011;59616;52.170;5.386;2022-08-21T00:12:56;6.75;;;2.60;;
70800;SDS011;59616;52.170;5.386;2022-08-21T00:15:25;8.82;;;3.08;;
70800;SDS011;59616;52.170;5.386;2022-08-21T00:17:54;9.13;;;3.20;;
70800;SDS011;59616;52.170;5.386;2022-08-21T00:20:22;9.45;;;2.97;;
70800;SDS011;59616;52.170;5.386;2022-08-21T00:22:49;7.72;;;3.03;;
70800;SDS011;59616;52.170;5.386;2022-08-21T00:25:16;11.23;;;3.58;;
70800;SDS011;59616;52.170;5.386;2022-08-21T00:27:49;7.15;;;2.63;;
70800;SDS011;59616;52.170;5.386;2022-08-21T00:30:17;10.30;;;2.95;;
70800;SDS011;59616;52.170;5.386;2022-08-21T00:32:48;8.85;;;3.20;;
70800;SDS011;59616;52.170;5.386;2022-08-21T00:35:17;8.43;;;3.13;;
70800;SDS011;59616;52.170;5.386;2022-08-21T00:37:45;9.30;;;3.20;;
70800;SDS011;59616;52.170;5.386;2022-08-21T00:40:14;9.05;;;3.03;;
70800;SDS011;59616;52.170;5.386;2022-08-21T00:42:43;8.32;;;2.95;;
70800;SDS011;59616;52.170;5.386;2022-08-21T00:45:19;9.70;;;3.00;;
70800;SDS011;59616;52.170;5.386;2022-08-21T00:47:50;7.88;;;2.75;;
70800;SDS011;59616;52.170;5.386;2022-08-21T00:50:17;9.60;;;2.80;;
70800;SDS011;59616;52.170;5.386;2022-08-21T00:52:47;9.45;;;3.00;;
70800;SDS011;59616;52.170;5.386;2022-08-21T00:55:16;9.10;;;2.72;;
70800;SDS011;59616;52.170;5.386;2022-08-21T00:57:47;9.18;;;2.72;;
70800;SDS011;59616;52.170;5.386;2022-08-21T01:00:18;8.57;;;2.90;;
70800;SDS011;59616;52.170;5.386;2022-08-21T01:02:47;9.02;;;2.70;;
70800;SDS011;59616;52.170;5.386;2022-08-21T01:05:14;8.52;;;2.97;;
70800;SDS011;59616;52.170;5.386;2022-08-21T01:07:41;7.63;;;2.75;;
70800;SDS011;59616;52.170;5.386;2022-08-21T01:10:08;8.85;;;2.83;;
70800;SDS011;59616;52.170;5.386;2022-08-21T01:12:45;9.50;;;2.92;;
70800;SDS011;59616;52.170;5.386;2022-08-21T01:15:12;8.73;;;2.80;;
70800;SDS011;59616;52.170;5.386;2022-08-21T01:17:41;8.02;;;2.70;;
70800;SDS011;59616;52.170;5.386;2022-08-21T01:20:09;11.88;;;3.20;;
70800;SDS011;59616;52.170;5.386;2022-08-21T01:22:37;8.60;;;2.75;;
70800;SDS011;59616;52.170;5.386;2022-08-21T01:25:05;9.20;;;3.03;;
70800;SDS011;59616;52.170;5.386;2022-08-21T01:27:33;9.32;;;2.90;;
70800;SDS011;59616;52.170;5.386;2022-08-21T01:30:08;9.77;;;3.15;;
70800;SDS011;59616;52.170;5.386;2022-08-21T01:32:41;11.25;;;3.40;;
70800;SDS011;59616;52.170;5.386;2022-08-21T01:35:08;8.80;;;3.40;;
70800;SDS011;59616;52.170;5.386;2022-08-21T01:37:37;8.77;;;3.53;;
70800;SDS011;59616;52.170;5.386;2022-08-21T01:40:05;9.70;;;3.38;;
70800;SDS011;59616;52.170;5.386;2022-08-21T01:42:34;8.02;;;3.05;;
70800;SDS011;59616;52.170;5.386;2022-08-21T01:45:01;10.00;;;3.55;;
70800;SDS011;59616;52.170;5.386;2022-08-21T01:47:28;10.20;;;3.60;;
70800;SDS011;59616;52.170;5.386;2022-08-21T01:49:55;11.27;;;3.78;;
70800;SDS011;59616;52.170;5.386;2022-08-21T01:52:21;9.50;;;3.30;;
70800;SDS011;59616;52.170;5.386;2022-08-21T01:54:48;9.23;;;3.53;;
70800;SDS011;59616;52.170;5.386;2022-08-21T01:57:21;10.27;;;3.55;;
70800;SDS011;59616;52.170;5.386;2022-08-21T01:59:51;10.00;;;3.33;;
70800;SDS011;59616;52.170;5.386;2022-08-21T02:02:18;8.85;;;3.47;;
70800;SDS011;59616;52.170;5.386;2022-08-21T02:04:45;9.90;;;3.50;;
70800;SDS011;59616;52.170;5.386;2022-08-21T02:07:12;10.80;;;3.20;;
70800;SDS011;59616;52.170;5.386;2022-08-21T02:09:38;11.50;;;3.60;;
70800;SDS011;59616;52.170;5.386;2022-08-21T02:12:09;11.48;;;3.33;;
70800;SDS011;59616;52.170;5.386;2022-08-21T02:14:37;9.10;;;3.38;;
70800;SDS011;59616;52.170;5.386;2022-08-21T02:17:04;9.55;;;3.28;;
70800;SDS011;59616;52.170;5.386;2022-08-21T02:19:35;10.15;;;3.53;;
70800;SDS011;59616;52.170;5.386;2022-08-21T02:22:07;9.93;;;3.72;;
70800;SDS011;59616;52.170;5.386;2022-08-21T02:24:36;8.30;;;3.45;;
70800;SDS011;59616;52.170;5.386;2022-08-21T02:27:19;12.43;;;3.83;;
70800;SDS011;59616;52.170;5.386;2022-08-21T02:29:52;10.00;;;3.35;;
70800;SDS011;59616;52.170;5.386;2022-08-21T02:32:23;10.40;;;3.70;;
70800;SDS011;59616;52.170;5.386;2022-08-21T02:34:50;10.02;;;4.18;;
70800;SDS011;59616;52.170;5.386;2022-08-21T02:37:17;9.30;;;3.75;;
70800;SDS011;59616;52.170;5.386;2022-08-21T02:39:44;11.05;;;3.85;;
70800;SDS011;59616;52.170;5.386;2022-08-21T02:42:10;10.65;;;3.90;;
70800;SDS011;59616;52.170;5.386;2022-08-21T02:44:37;9.48;;;3.65;;
70800;SDS011;59616;52.170;5.386;2022-08-21T02:47:04;12.75;;;3.75;;
70800;SDS011;59616;52.170;5.386;2022-08-21T02:49:30;10.70;;;3.53;;
70800;SDS011;59616;52.170;5.386;2022-08-21T02:51:57;10.55;;;3.50;;
70800;SDS011;59616;52.170;5.386;2022-08-21T02:54:24;11.70;;;3.70;;
70800;SDS011;59616;52.170;5.386;2022-08-21T02:56:51;11.88;;;3.75;;
70800;SDS011;59616;52.170;5.386;2022-08-21T02:59:18;8.55;;;3.53;;
70800;SDS011;59616;52.170;5.386;2022-08-21T03:01:45;9.98;;;4.00;;
70800;SDS011;59616;52.170;5.386;2022-08-21T03:04:11;12.13;;;4.00;;
70800;SDS011;59616;52.170;5.386;2022-08-21T03:06:38;10.18;;;3.47;;
70800;SDS011;59616;52.170;5.386;2022-08-21T03:09:05;10.63;;;3.60;;
70800;SDS011;59616;52.170;5.386;2022-08-21T03:11:32;8.95;;;3.63;;
70800;SDS011;59616;52.170;5.386;2022-08-21T03:13:59;10.77;;;3.88;;
70800;SDS011;59616;52.170;5.386;2022-08-21T03:16:25;10.88;;;3.70;;
70800;SDS011;59616;52.170;5.386;2022-08-21T03:18:55;15.02;;;4.65;;
70800;SDS011;59616;52.170;5.386;2022-08-21T03:21:21;8.32;;;3.40;;
70800;SDS011;59616;52.170;5.386;2022-08-21T03:23:48;10.75;;;3.63;;
70800;SDS011;59616;52.170;5.386;2022-08-21T03:26:15;10.30;;;4.05;;
70800;SDS011;59616;52.170;5.386;2022-08-21T03:28:45;9.35;;;3.83;;
70800;SDS011;59616;52.170;5.386;2022-08-21T03:31:11;9.23;;;3.75;;
70800;SDS011;59616;52.170;5.386;2022-08-21T03:33:38;9.73;;;3.72;;
70800;SDS011;59616;52.170;5.386;2022-08-21T03:36:05;11.13;;;3.70;;
70800;SDS011;59616;52.170;5.386;2022-08-21T03:38:34;11.40;;;4.07;;
70800;SDS011;59616;52.170;5.386;2022-08-21T03:41:02;9.88;;;3.80;;
70800;SDS011;59616;52.170;5.386;2022-08-21T03:43:31;14.13;;;4.25;;
70800;SDS011;59616;52.170;5.386;2022-08-21T03:46:00;11.95;;;3.70;;
70800;SDS011;59616;52.170;5.386;2022-08-21T03:48:28;12.43;;;4.20;;
70800;SDS011;59616;52.170;5.386;2022-08-21T03:50:55;10.60;;;3.60;;
70800;SDS011;59616;52.170;5.386;2022-08-21T03:53:22;12.30;;;3.70;;
70800;SDS011;59616;52.170;5.386;2022-08-21T03:55:49;11.30;;;4.30;;
70800;SDS011;59616;52.170;5.386;2022-08-21T03:58:19;9.88;;;3.90;;
70800;SDS011;59616;52.170;5.386;2022-08-21T04:00:50;11.55;;;3.65;;
70800;SDS011;59616;52.170;5.386;2022-08-21T04:03:18;11.43;;;4.28;;
70800;SDS011;59616;52.170;5.386;2022-08-21T04:05:46;10.90;;;3.53;;
70800;SDS011;59616;52.170;5.386;2022-08-21T04:08:14;9.93;;;3.60;;
70800;SDS011;59616;52.170;5.386;2022-08-21T04:10:43;10.35;;;4.00;;
70800;SDS011;59616;52.170;5.386;2022-08-21T04:13:12;12.10;;;3.70;;
70800;SDS011;59616;52.170;5.386;2022-08-21T04:15:40;10.27;;;3.80;;
70800;SDS011;59616;52.170;5.386;2022-08-21T04:18:07;10.55;;;3.92;;
70800;SDS011;59616;52.170;5.386;2022-08-21T04:20:34;12.35;;;4.10;;
70800;SDS011;59616;52.170;5.386;2022-08-21T04:23:01;10.90;;;3.90;;
70800;SDS011;59616;52.170;5.386;2022-08-21T04:25:29;12.32;;;3.80;;
70800;SDS011;59616;52.170;5.386;2022-08-21T04:27:56;11.85;;;4.28;;
70800;SDS011;59616;52.170;5.386;2022-08-21T04:30:23;13.80;;;4.35;;
70800;SDS011;59616;52.170;5.386;2022-08-21T04:32:54;11.75;;;4.05;;
70800;SDS011;59616;52.170;5.386;2022-08-21T04:35:23;15.38;;;4.45;;
70800;SDS011;59616;52.170;5.386;2022-08-21T04:37:51;13.05;;;4.40;;
70800;SDS011;59616;52.170;5.386;2022-08-21T04:40:18;11.98;;;4.28;;
70800;SDS011;59616;52.170;5.386;2022-08-21T04:42:51;11.77;;;4.40;;
70800;SDS011;59616;52.170;5.386;2022-08-21T04:45:29;13.25;;;4.70;;
70800;SDS011;59616;52.170;5.386;2022-08-21T04:48:05;12.60;;;4.60;;
70800;SDS011;59616;52.170;5.386;2022-08-21T04:50:41;13.05;;;4.80;;
70800;SDS011;59616;52.170;5.386;2022-08-21T04:53:18;11.93;;;4.50;;
70800;SDS011;59616;52.170;5.386;2022-08-21T04:55:48;12.10;;;4.65;;
70800;SDS011;59616;52.170;5.386;2022-08-21T04:58:17;11.80;;;4.53;;
70800;SDS011;59616;52.170;5.386;2022-08-21T05:00:46;12.48;;;5.00;;
70800;SDS011;59616;52.170;5.386;2022-08-21T05:03:13;14.35;;;5.35;;
70800;SDS011;59616;52.170;5.386;2022-08-21T05:05:42;12.43;;;4.85;;
70800;SDS011;59616;52.170;5.386;2022-08-21T05:08:09;14.88;;;4.85;;
70800;SDS011;59616;52.170;5.386;2022-08-21T05:10:40;12.40;;;4.97;;
70800;SDS011;59616;52.170;5.386;2022-08-21T05:13:08;10.65;;;4.40;;
70800;SDS011;59616;52.170;5.386;2022-08-21T05:15:35;16.20;;;4.93;;
70800;SDS011;59616;52.170;5.386;2022-08-21T05:18:03;15.90;;;5.28;;
70800;SDS011;59616;52.170;5.386;2022-08-21T05:20:30;13.20;;;5.50;;
70800;SDS011;59616;52.170;5.386;2022-08-21T05:22:57;13.55;;;5.20;;
70800;SDS011;59616;52.170;5.386;2022-08-21T05:25:24;15.07;;;4.90;;
70800;SDS011;59616;52.170;5.386;2022-08-21T05:27:53;11.10;;;4.35;;
70800;SDS011;59616;52.170;5.386;2022-08-21T05:30:20;12.63;;;4.78;;
70800;SDS011;59616;52.170;5.386;2022-08-21T05:32:47;12.70;;;5.03;;
70800;SDS011;59616;52.170;5.386;2022-08-21T05:35:14;14.10;;;5.43;;
70800;SDS011;59616;52.170;5.386;2022-08-21T05:37:41;11.05;;;4.60;;
70800;SDS011;59616;52.170;5.386;2022-08-21T05:40:08;12.38;;;4.97;;
70800;SDS011;59616;52.170;5.386;2022-08-21T05:42:48;16.45;;;4.80;;
70800;SDS011;59616;52.170;5.386;2022-08-21T05:45:20;13.15;;;4.65;;
70800;SDS011;59616;52.170;5.386;2022-08-21T05:48:13;15.20;;;5.35;;
70800;SDS011;59616;52.170;5.386;2022-08-21T05:50:50;14.65;;;5.60;;
70800;SDS011;59616;52.170;5.386;2022-08-21T05:53:18;16.98;;;5.20;;
70800;SDS011;59616;52.170;5.386;2022-08-21T05:55:47;14.05;;;5.00;;
70800;SDS011;59616;52.170;5.386;2022-08-21T05:58:23;14.48;;;5.30;;
70800;SDS011;59616;52.170;5.386;2022-08-21T06:01:02;14.88;;;5.10;;
70800;SDS011;59616;52.170;5.386;2022-08-21T06:03:31;14.77;;;4.65;;
70800;SDS011;59616;52.170;5.386;2022-08-21T06:06:00;13.55;;;5.43;;
70800;SDS011;59616;52.170;5.386;2022-08-21T06:08:28;12.23;;;5.25;;
70800;SDS011;59616;52.170;5.386;2022-08-21T06:10:55;14.32;;;5.00;;
70800;SDS011;59616;52.170;5.386;2022-08-21T06:13:24;16.83;;;5.35;;
70800;SDS011;59616;52.170;5.386;2022-08-21T06:15:59;17.48;;;5.65;;
70800;SDS011;59616;52.170;5.386;2022-08-21T06:18:28;16.02;;;5.40;;
70800;SDS011;59616;52.170;5.386;2022-08-21T06:20:55;15.02;;;4.90;;
70800;SDS011;59616;52.170;5.386;2022-08-21T06:23:23;14.40;;;4.88;;
70800;SDS011;59616;52.170;5.386;2022-08-21T06:25:58;15.60;;;5.78;;
70800;SDS011;59616;52.170;5.386;2022-08-21T06:28:26;13.90;;;5.28;;
70800;SDS011;59616;52.170;5.386;2022-08-21T06:30:53;18.13;;;5.90;;
70800;SDS011;59616;52.170;5.386;2022-08-21T06:33:19;17.80;;;5.70;;
70800;SDS011;59616;52.170;5.386;2022-08-21T06:35:47;14.10;;;5.20;;
70800;SDS011;59616;52.170;5.386;2022-08-21T06:38:14;14.25;;;5.18;;
70800;SDS011;59616;52.170;5.386;2022-08-21T06:40:41;14.82;;;4.88;;
70800;SDS011;59616;52.170;5.386;2022-08-21T06:43:13;15.52;;;5.30;;
70800;SDS011;59616;52.170;5.386;2022-08-21T06:45:42;17.90;;;5.32;;
70800;SDS011;59616;52.170;5.386;2022-08-21T06:48:09;15.65;;;5.13;;
70800;SDS011;59616;52.170;5.386;2022-08-21T06:50:42;14.20;;;4.50;;
70800;SDS011;59616;52.170;5.386;2022-08-21T06:53:10;14.85;;;4.93;;
70800;SDS011;59616;52.170;5.386;2022-08-21T06:55:39;11.70;;;5.53;;
70800;SDS011;59616;52.170;5.386;2022-08-21T06:58:06;14.45;;;4.90;;
70800;SDS011;59616;52.170;5.386;2022-08-21T07:00:34;14.82;;;5.20;;
70800;SDS011;59616;52.170;5.386;2022-08-21T07:03:04;18.63;;;4.75;;
70800;SDS011;59616;52.170;5.386;2022-08-21T07:05:30;20.80;;;6.47;;
70800;SDS011;59616;52.170;5.386;2022-08-21T07:07:57;15.70;;;4.90;;
70800;SDS011;59616;52.170;5.386;2022-08-21T07:10:25;18.10;;;5.55;;
70800;SDS011;59616;52.170;5.386;2022-08-21T07:12:53;14.98;;;4.70;;
70800;SDS011;59616;52.170;5.386;2022-08-21T07:15:29;17.88;;;5.25;;
70800;SDS011;59616;52.170;5.386;2022-08-21T07:17:56;15.25;;;4.82;;
70800;SDS011;59616;52.170;5.386;2022-08-21T07:20:24;18.10;;;5.13;;
70800;SDS011;59616;52.170;5.386;2022-08-21T07:22:52;14.93;;;4.30;;
70800;SDS011;59616;52.170;5.386;2022-08-21T07:25:19;13.85;;;4.85;;
70800;SDS011;59616;52.170;5.386;2022-08-21T07:27:45;13.50;;;4.40;;
70800;SDS011;59616;52.170;5.386;2022-08-21T07:30:12;16.48;;;4.85;;
70800;SDS011;59616;52.170;5.386;2022-08-21T07:32:39;15.10;;;4.57;;
70800;SDS011;59616;52.170;5.386;2022-08-21T07:35:06;15.25;;;4.45;;
70800;SDS011;59616;52.170;5.386;2022-08-21T07:37:33;13.35;;;4.05;;
70800;SDS011;59616;52.170;5.386;2022-08-21T07:40:00;11.95;;;4.15;;
70800;SDS011;59616;52.170;5.386;2022-08-21T07:42:26;13.20;;;4.22;;
70800;SDS011;59616;52.170;5.386;2022-08-21T07:44:54;11.68;;;4.10;;
70800;SDS011;59616;52.170;5.386;2022-08-21T07:47:21;16.42;;;4.45;;
70800;SDS011;59616;52.170;5.386;2022-08-21T07:50:08;11.75;;;4.13;;
70800;SDS011;59616;52.170;5.386;2022-08-21T07:52:40;15.35;;;4.70;;
70800;SDS011;59616;52.170;5.386;2022-08-21T07:55:08;13.55;;;4.13;;
70800;SDS011;59616;52.170;5.386;2022-08-21T07:57:36;16.25;;;4.60;;
70800;SDS011;59616;52.170;5.386;2022-08-21T08:00:05;12.93;;;3.78;;
70800;SDS011;59616;52.170;5.386;2022-08-21T08:02:37;14.90;;;4.50;;
70800;SDS011;59616;52.170;5.386;2022-08-21T08:05:06;17.52;;;4.05;;
70800;SDS011;59616;52.170;5.386;2022-08-21T08:07:35;15.45;;;4.25;;
70800;SDS011;59616;52.170;5.386;2022-08-21T08:10:02;15.80;;;4.00;;
70800;SDS011;59616;52.170;5.386;2022-08-21T08:12:31;12.50;;;3.40;;
70800;SDS011;59616;52.170;5.386;2022-08-21T08:14:59;12.68;;;4.03;;
70800;SDS011;59616;52.170;5.386;2022-08-21T08:17:26;13.70;;;3.70;;
70800;SDS011;59616;52.170;5.386;2022-08-21T08:19:53;13.50;;;3.83;;
70800;SDS011;59616;52.170;5.386;2022-08-21T08:22:21;12.00;;;3.70;;
70800;SDS011;59616;52.170;5.386;2022-08-21T08:24:50;12.65;;;3.50;;
70800;SDS011;59616;52.170;5.386;2022-08-21T08:27:18;14.75;;;3.40;;
70800;SDS011;59616;52.170;5.386;2022-08-21T08:29:45;14.30;;;3.35;;
70800;SDS011;59616;52.170;5.386;2022-08-21T08:32:13;10.80;;;3.08;;
70800;SDS011;59616;52.170;5.386;2022-08-21T08:34:40;9.73;;;2.78;;
70800;SDS011;59616;52.170;5.386;2022-08-21T08:37:07;13.95;;;3.25;;
70800;SDS011;59616;52.170;5.386;2022-08-21T08:39:35;9.25;;;3.13;;
70800;SDS011;59616;52.170;5.386;2022-08-21T08:42:06;13.85;;;3.40;;
70800;SDS011;59616;52.170;5.386;2022-08-21T08:45:00;10.98;;;3.60;;
70800;SDS011;59616;52.170;5.386;2022-08-21T08:47:37;11.45;;;3.13;;
70800;SDS011;59616;52.170;5.386;2022-08-21T08:50:19;10.65;;;3.42;;
70800;SDS011;59616;52.170;5.386;2022-08-21T08:53:04;13.25;;;3.17;;
70800;SDS011;59616;52.170;5.386;2022-08-21T08:55:34;17.73;;;3.63;;
70800;SDS011;59616;52.170;5.386;2022-08-21T08:58:03;14.20;;;3.40;;
70800;SDS011;59616;52.170;5.386;2022-08-21T09:00:31;13.07;;;2.90;;
70800;SDS011;59616;52.170;5.386;2022-08-21T09:02:59;13.10;;;2.97;;
70800;SDS011;59616;52.170;5.386;2022-08-21T09:05:40;12.13;;;3.17;;
70800;SDS011;59616;52.170;5.386;2022-08-21T09:11:00;9.88;;;2.80;;
70800;SDS011;59616;52.170;5.386;2022-08-21T09:13:45;10.65;;;2.83;;
70800;SDS011;59616;52.170;5.386;2022-08-21T09:16:35;10.70;;;2.63;;
70800;SDS011;59616;52.170;5.386;2022-08-21T09:22:16;11.00;;;3.03;;
70800;SDS011;59616;52.170;5.386;2022-08-21T09:24:53;10.98;;;2.75;;
70800;SDS011;59616;52.170;5.386;2022-08-21T09:27:33;12.40;;;3.22;;
70800;SDS011;59616;52.170;5.386;2022-08-21T09:30:03;11.50;;;2.42;;
70800;SDS011;59616;52.170;5.386;2022-08-21T09:32:32;10.77;;;2.40;;
70800;SDS011;59616;52.170;5.386;2022-08-21T09:37:34;11.95;;;2.42;;
70800;SDS011;59616;52.170;5.386;2022-08-21T09:40:31;11.43;;;2.53;;
70800;SDS011;59616;52.170;5.386;2022-08-21T09:45:38;10.15;;;2.25;;
70800;SDS011;59616;52.170;5.386;2022-08-21T09:48:08;8.85;;;2.00;;
70800;SDS011;59616;52.170;5.386;2022-08-21T09:50:37;10.23;;;2.50;;
70800;SDS011;59616;52.170;5.386;2022-08-21T09:53:04;8.82;;;2.63;;
70800;SDS011;59616;52.170;5.386;2022-08-21T09:55:49;8.38;;;2.28;;
70800;SDS011;59616;52.170;5.386;2022-08-21T09:58:38;10.30;;;2.38;;
70800;SDS011;59616;52.170;5.386;2022-08-21T10:01:11;10.35;;;2.30;;
70800;SDS011;59616;52.170;5.386;2022-08-21T10:03:42;12.90;;;2.83;;
70800;SDS011;59616;52.170;5.386;2022-08-21T10:06:09;11.82;;;2.60;;
70800;SDS011;59616;52.170;5.386;2022-08-21T10:08:37;10.23;;;2.70;;
70800;SDS011;59616;52.170;5.386;2022-08-21T10:11:07;6.82;;;2.17;;
70800;SDS011;59616;52.170;5.386;2022-08-21T10:16:21;8.75;;;2.05;;
70800;SDS011;59616;52.170;5.386;2022-08-21T10:19:04;8.13;;;2.67;;
70800;SDS011;59616;52.170;5.386;2022-08-21T10:21:49;8.48;;;2.25;;
70800;SDS011;59616;52.170;5.386;2022-08-21T10:27:02;10.43;;;2.45;;
70800;SDS011;59616;52.170;5.386;2022-08-21T10:33:13;9.98;;;1.90;;
70800;SDS011;59616;52.170;5.386;2022-08-21T10:36:12;9.35;;;2.05;;
70800;SDS011;59616;52.170;5.386;2022-08-21T10:38:49;8.50;;;1.90;;
70800;SDS011;59616;52.170;5.386;2022-08-21T10:42:07;8.43;;;2.17;;
70800;SDS011;59616;52.170;5.386;2022-08-21T10:47:42;12.93;;;2.30;;
70800;SDS011;59616;52.170;5.386;2022-08-21T10:50:58;7.38;;;1.83;;
70800;SDS011;59616;52.170;5.386;2022-08-21T10:56:23;10.27;;;2.65;;
70800;SDS011;59616;52.170;5.386;2022-08-21T10:59:05;8.30;;;2.10;;
70800;SDS011;59616;52.170;5.386;2022-08-21T11:04:30;9.25;;;2.25;;
70800;SDS011;59616;52.170;5.386;2022-08-21T11:09:47;8.73;;;1.98;;
70800;SDS011;59616;52.170;5.386;2022-08-21T11:12:31;8.63;;;2.10;;
70800;SDS011;59616;52.170;5.386;2022-08-21T11:15:16;8.70;;;2.10;;
70800;SDS011;59616;52.170;5.386;2022-08-21T11:18:16;9.52;;;2.20;;
70800;SDS011;59616;52.170;5.386;2022-08-21T11:21:08;7.68;;;2.05;;
70800;SDS011;59616;52.170;5.386;2022-08-21T11:23:57;6.10;;;1.80;;
70800;SDS011;59616;52.170;5.386;2022-08-21T11:26:35;8.00;;;1.92;;
70800;SDS011;59616;52.170;5.386;2022-08-21T11:29:13;7.07;;;2.10;;
70800;SDS011;59616;52.170;5.386;2022-08-21T11:36:57;8.25;;;2.15;;
70800;SDS011;59616;52.170;5.386;2022-08-21T11:39:41;10.00;;;2.25;;
70800;SDS011;59616;52.170;5.386;2022-08-21T11:42:33;10.10;;;2.20;;
70800;SDS011;59616;52.170;5.386;2022-08-21T11:45:18;6.13;;;1.80;;
70800;SDS011;59616;52.170;5.386;2022-08-21T11:48:05;8.02;;;1.92;;
70800;SDS011;59616;52.170;5.386;2022-08-21T11:51:01;11.38;;;2.28;;
70800;SDS011;59616;52.170;5.386;2022-08-21T11:53:36;8.10;;;2.40;;
70800;SDS011;59616;52.170;5.386;2022-08-21T11:56:12;8.50;;;2.58;;
70800;SDS011;59616;52.170;5.386;2022-08-21T11:58:54;9.85;;;3.00;;
70800;SDS011;59616;52.170;5.386;2022-08-21T12:01:25;10.02;;;3.10;;
70800;SDS011;59616;52.170;5.386;2022-08-21T12:04:02;9.88;;;2.78;;
70800;SDS011;59616;52.170;5.386;2022-08-21T12:06:37;8.07;;;2.60;;
70800;SDS011;59616;52.170;5.386;2022-08-21T12:09:08;10.23;;;2.90;;
70800;SDS011;59616;52.170;5.386;2022-08-21T12:11:46;9.93;;;2.90;;
70800;SDS011;59616;52.170;5.386;2022-08-21T12:14:16;12.77;;;2.97;;
70800;SDS011;59616;52.170;5.386;2022-08-21T12:16:45;9.73;;;2.55;;
70800;SDS011;59616;52.170;5.386;2022-08-21T12:21:54;9.25;;;2.70;;
70800;SDS011;59616;52.170;5.386;2022-08-21T12:24:45;9.13;;;2.50;;
70800;SDS011;59616;52.170;5.386;2022-08-21T12:27:20;6.22;;;1.88;;
70800;SDS011;59616;52.170;5.386;2022-08-21T12:29:54;8.48;;;2.60;;
70800;SDS011;59616;52.170;5.386;2022-08-21T12:35:14;10.48;;;2.35;;
70800;SDS011;59616;52.170;5.386;2022-08-21T12:37:58;8.75;;;2.45;;
70800;SDS011;59616;52.170;5.386;2022-08-21T12:43:17;10.38;;;2.30;;
70800;SDS011;59616;52.170;5.386;2022-08-21T12:45:48;10.38;;;2.60;;
70800;SDS011;59616;52.170;5.386;2022-08-21T12:48:28;8.00;;;2.30;;
70800;SDS011;59616;52.170;5.386;2022-08-21T12:51:18;8.68;;;2.10;;
70800;SDS011;59616;52.170;5.386;2022-08-21T12:53:52;7.55;;;2.30;;
70800;SDS011;59616;52.170;5.386;2022-08-21T12:56:23;10.27;;;2.78;;
70800;SDS011;59616;52.170;5.386;2022-08-21T12:58:57;7.70;;;2.38;;
70800;SDS011;59616;52.170;5.386;2022-08-21T13:01:36;8.85;;;2.03;;
70800;SDS011;59616;52.170;5.386;2022-08-21T13:04:11;9.77;;;2.10;;
70800;SDS011;59616;52.170;5.386;2022-08-21T13:06:45;8.65;;;2.67;;
70800;SDS011;59616;52.170;5.386;2022-08-21T13:09:15;9.20;;;2.25;;
70800;SDS011;59616;52.170;5.386;2022-08-21T13:11:46;9.95;;;2.30;;
70800;SDS011;59616;52.170;5.386;2022-08-21T13:14:36;8.20;;;2.40;;
70800;SDS011;59616;52.170;5.386;2022-08-21T13:19:59;7.75;;;2.08;;
70800;SDS011;59616;52.170;5.386;2022-08-21T13:22:28;9.57;;;2.30;;
70800;SDS011;59616;52.170;5.386;2022-08-21T13:25:00;7.82;;;2.20;;
70800;SDS011;59616;52.170;5.386;2022-08-21T13:27:32;7.72;;;2.10;;
70800;SDS011;59616;52.170;5.386;2022-08-21T13:30:05;9.05;;;2.25;;
70800;SDS011;59616;52.170;5.386;2022-08-21T13:32:37;6.20;;;2.00;;
70800;SDS011;59616;52.170;5.386;2022-08-21T13:35:08;9.52;;;2.00;;
70800;SDS011;59616;52.170;5.386;2022-08-21T13:37:41;8.95;;;2.08;;
70800;SDS011;59616;52.170;5.386;2022-08-21T13:40:10;15.25;;;2.50;;
70800;SDS011;59616;52.170;5.386;2022-08-21T13:42:43;9.35;;;2.20;;
70800;SDS011;59616;52.170;5.386;2022-08-21T13:45:13;6.82;;;2.33;;
70800;SDS011;59616;52.170;5.386;2022-08-21T13:47:59;6.18;;;1.70;;
70800;SDS011;59616;52.170;5.386;2022-08-21T13:50:32;9.32;;;2.25;;
70800;SDS011;59616;52.170;5.386;2022-08-21T13:53:04;5.60;;;1.92;;
70800;SDS011;59616;52.170;5.386;2022-08-21T13:55:38;12.30;;;2.30;;
70800;SDS011;59616;52.170;5.386;2022-08-21T13:58:08;8.10;;;2.00;;
70800;SDS011;59616;52.170;5.386;2022-08-21T14:00:44;7.22;;;2.17;;
70800;SDS011;59616;52.170;5.386;2022-08-21T14:03:13;6.95;;;1.80;;
70800;SDS011;59616;52.170;5.386;2022-08-21T14:05:53;9.65;;;2.10;;
70800;SDS011;59616;52.170;5.386;2022-08-21T14:08:24;7.15;;;2.10;;
70800;SDS011;59616;52.170;5.386;2022-08-21T14:10:59;9.40;;;2.05;;
70800;SDS011;59616;52.170;5.386;2022-08-21T14:16:10;5.82;;;1.83;;
70800;SDS011;59616;52.170;5.386;2022-08-21T14:18:53;8.60;;;2.00;;
70800;SDS011;59616;52.170;5.386;2022-08-21T14:21:25;6.75;;;1.90;;
70800;SDS011;59616;52.170;5.386;2022-08-21T14:24:04;6.40;;;2.03;;
70800;SDS011;59616;52.170;5.386;2022-08-21T14:26:35;12.43;;;2.33;;
70800;SDS011;59616;52.170;5.386;2022-08-21T14:29:09;9.65;;;2.40;;
70800;SDS011;59616;52.170;5.386;2022-08-21T14:31:40;7.53;;;1.90;;
70800;SDS011;59616;52.170;5.386;2022-08-21T14:34:10;9.13;;;2.22;;
70800;SDS011;59616;52.170;5.386;2022-08-21T14:36:45;7.22;;;2.08;;
70800;SDS011;59616;52.170;5.386;2022-08-21T14:39:12;10.18;;;2.38;;
70800;SDS011;59616;52.170;5.386;2022-08-21T14:41:39;9.50;;;2.17;;
70800;SDS011;59616;52.170;5.386;2022-08-21T14:44:08;8.02;;;2.20;;
70800;SDS011;59616;52.170;5.386;2022-08-21T14:46:36;6.63;;;2.35;;
70800;SDS011;59616;52.170;5.386;2022-08-21T14:49:25;7.78;;;2.20;;
70800;SDS011;59616;52.170;5.386;2022-08-21T14:51:54;9.15;;;2.33;;
70800;SDS011;59616;52.170;5.386;2022-08-21T14:54:24;5.72;;;2.03;;
70800;SDS011;59616;52.170;5.386;2022-08-21T14:57:02;6.00;;;1.77;;
70800;SDS011;59616;52.170;5.386;2022-08-21T14:59:34;7.63;;;2.00;;
70800;SDS011;59616;52.170;5.386;2022-08-21T15:02:03;5.70;;;1.92;;
70800;SDS011;59616;52.170;5.386;2022-08-21T15:04:30;8.90;;;2.08;;
70800;SDS011;59616;52.170;5.386;2022-08-21T15:06:58;8.43;;;1.92;;
70800;SDS011;59616;52.170;5.386;2022-08-21T15:09:25;9.48;;;2.08;;
70800;SDS011;59616;52.170;5.386;2022-08-21T15:11:52;8.48;;;1.95;;
70800;SDS011;59616;52.170;5.386;2022-08-21T15:14:21;7.90;;;1.75;;
70800;SDS011;59616;52.170;5.386;2022-08-21T15:16:51;6.15;;;1.83;;
70800;SDS011;59616;52.170;5.386;2022-08-21T15:19:18;8.93;;;2.08;;
70800;SDS011;59616;52.170;5.386;2022-08-21T15:21:45;6.90;;;1.83;;
70800;SDS011;59616;52.170;5.386;2022-08-21T15:24:12;9.57;;;2.30;;
70800;SDS011;59616;52.170;5.386;2022-08-21T15:26:39;9.05;;;2.10;;
70800;SDS011;59616;52.170;5.386;2022-08-21T15:29:06;9.38;;;2.20;;
70800;SDS011;59616;52.170;5.386;2022-08-21T15:31:34;9.45;;;2.22;;
70800;SDS011;59616;52.170;5.386;2022-08-21T15:34:01;7.32;;;1.95;;
70800;SDS011;59616;52.170;5.386;2022-08-21T15:36:29;9.93;;;2.03;;
70800;SDS011;59616;52.170;5.386;2022-08-21T15:38:56;8.38;;;1.98;;
70800;SDS011;59616;52.170;5.386;2022-08-21T15:41:22;9.18;;;1.90;;
70800;SDS011;59616;52.170;5.386;2022-08-21T15:43:50;7.03;;;1.63;;
70800;SDS011;59616;52.170;5.386;2022-08-21T15:46:19;7.75;;;2.10;;
70800;SDS011;59616;52.170;5.386;2022-08-21T15:48:47;5.53;;;1.83;;
70800;SDS011;59616;52.170;5.386;2022-08-21T15:51:15;7.47;;;1.83;;
70800;SDS011;59616;52.170;5.386;2022-08-21T15:53:43;7.40;;;2.03;;
70800;SDS011;59616;52.170;5.386;2022-08-21T15:56:12;8.98;;;1.95;;